createdAt,value
2018-07-24T00:01:37.615Z,7.93
2018-07-24T00:04:05.770Z,7.10
2018-07-24T00:06:33.828Z,7.03
2018-07-24T00:09:01.960Z,6.50
2018-07-24T00:11:30.089Z,6.83
2018-07-24T00:13:58.242Z,6.80
2018-07-24T00:16:26.367Z,7.47
2018-07-24T00:18:54.539Z,7.60
2018-07-24T00:21:22.678Z,7.03
2018-07-24T00:23:50.807Z,6.70
2018-07-24T00:26:18.920Z,7.30
2018-07-24T00:28:47.000Z,7.50
2018-07-24T00:31:15.093Z,7.73
2018-07-24T00:33:43.255Z,6.80
2018-07-24T00:36:11.367Z,6.77
2018-07-24T00:38:39.500Z,7.10
2018-07-24T00:41:07.555Z,6.73
2018-07-24T00:43:35.655Z,6.97
2018-07-24T00:46:03.754Z,6.30
2018-07-24T00:48:31.892Z,6.77
2018-07-24T00:51:00.012Z,6.95
2018-07-24T00:53:28.119Z,6.20
2018-07-24T00:55:56.255Z,7.90
2018-07-24T00:58:24.340Z,7.80
2018-07-24T01:00:52.445Z,6.95
2018-07-24T01:03:20.559Z,7.42
2018-07-24T01:05:48.663Z,7.50
2018-07-24T01:08:16.803Z,7.47
2018-07-24T01:10:44.884Z,6.50
2018-07-24T01:13:12.983Z,7.30
2018-07-24T01:15:41.124Z,6.50
2018-07-24T01:18:09.280Z,7.75
2018-07-24T01:20:37.404Z,6.27
2018-07-24T01:23:05.554Z,7.03
2018-07-24T01:25:33.620Z,7.00
2018-07-24T01:28:01.747Z,8.00
2018-07-24T01:30:29.902Z,8.10
2018-07-24T01:32:58.030Z,7.90
2018-07-24T01:35:26.127Z,7.43
2018-07-24T01:37:54.273Z,7.60
2018-07-24T01:40:22.379Z,7.33
2018-07-24T01:42:50.506Z,8.17
2018-07-24T01:45:18.622Z,7.10
2018-07-24T01:47:46.896Z,6.90
2018-07-24T01:50:15.104Z,7.80
2018-07-24T01:52:43.335Z,7.47
2018-07-24T01:55:11.455Z,7.17
2018-07-24T01:57:39.548Z,6.77
2018-07-24T02:00:08.064Z,6.93
2018-07-24T02:02:36.183Z,6.77
2018-07-24T02:05:04.297Z,6.77
2018-07-24T02:07:32.389Z,7.37
2018-07-24T02:10:00.520Z,6.73
2018-07-24T02:12:28.626Z,6.90
2018-07-24T02:14:56.801Z,7.67
2018-07-24T02:17:24.869Z,6.53
2018-07-24T02:19:53.000Z,6.50
2018-07-24T02:22:21.154Z,6.90
2018-07-24T02:24:49.298Z,7.30
2018-07-24T02:27:17.409Z,7.80
2018-07-24T02:29:45.531Z,6.50
2018-07-24T02:32:13.675Z,7.67
2018-07-24T02:34:41.907Z,6.40
2018-07-24T02:37:10.361Z,6.50
2018-07-24T02:39:38.493Z,6.47
2018-07-24T02:42:06.647Z,6.60
2018-07-24T02:44:34.778Z,5.90
2018-07-24T02:47:02.905Z,6.25
2018-07-24T02:49:30.981Z,5.80
2018-07-24T02:51:59.089Z,6.72
2018-07-24T02:54:27.209Z,6.30
2018-07-24T02:56:55.313Z,6.72
2018-07-24T02:59:23.472Z,6.65
2018-07-24T03:01:51.618Z,5.90
2018-07-24T03:04:19.766Z,6.73
2018-07-24T03:06:47.893Z,5.87
2018-07-24T03:09:16.036Z,6.80
2018-07-24T03:11:44.176Z,6.43
2018-07-24T03:14:12.328Z,6.10
2018-07-24T03:16:40.494Z,6.73
2018-07-24T03:19:08.672Z,6.80
2018-07-24T03:21:36.837Z,6.37
2018-07-24T03:24:05.049Z,6.10
2018-07-24T03:26:33.194Z,5.70
2018-07-24T03:29:01.328Z,6.55
2018-07-24T03:31:29.439Z,6.43
2018-07-24T03:33:57.581Z,5.90
2018-07-24T03:36:25.708Z,6.07
2018-07-24T03:38:53.886Z,5.80
2018-07-24T03:41:21.990Z,5.70
2018-07-24T03:43:50.111Z,6.17
2018-07-24T03:46:18.445Z,6.15
2018-07-24T03:48:46.508Z,6.00
2018-07-24T03:51:14.612Z,5.95
2018-07-24T03:53:42.820Z,6.50
2018-07-24T03:56:10.945Z,5.92
2018-07-24T03:58:39.040Z,6.50
2018-07-24T04:01:07.132Z,6.40
2018-07-24T04:03:35.201Z,6.35
2018-07-24T04:06:03.287Z,6.83
2018-07-24T04:08:31.374Z,6.23
2018-07-24T04:10:59.511Z,6.00
2018-07-24T04:13:27.667Z,5.33
2018-07-24T04:15:55.849Z,6.05
2018-07-24T04:18:23.974Z,6.12
2018-07-24T04:20:52.149Z,6.53
2018-07-24T04:23:20.279Z,6.33
2018-07-24T04:25:48.437Z,6.75
2018-07-24T04:28:16.578Z,5.70
2018-07-24T04:30:44.748Z,5.62
2018-07-24T04:33:12.885Z,6.08
2018-07-24T04:35:41.009Z,5.35
2018-07-24T04:38:09.099Z,5.60
2018-07-24T04:40:37.196Z,5.70
2018-07-24T04:43:05.328Z,5.33
2018-07-24T04:45:33.448Z,5.97
2018-07-24T04:48:01.963Z,5.33
2018-07-24T04:50:30.050Z,5.80
2018-07-24T04:52:58.170Z,5.80
2018-07-24T04:55:26.306Z,5.25
2018-07-24T04:57:54.424Z,5.30
2018-07-24T05:00:22.627Z,4.70
2018-07-24T05:02:50.734Z,4.80
2018-07-24T05:05:18.864Z,4.93
2018-07-24T05:07:47.030Z,4.53
2018-07-24T05:10:15.767Z,4.70
2018-07-24T05:12:43.897Z,4.53
2018-07-24T05:15:12.122Z,4.70
2018-07-24T05:17:40.288Z,4.20
2018-07-24T05:20:08.452Z,4.70
2018-07-24T05:22:36.555Z,4.15
2018-07-24T05:25:04.702Z,4.27
2018-07-24T05:27:32.835Z,4.60
2018-07-24T05:30:01.024Z,4.40
2018-07-24T05:32:29.170Z,4.77
2018-07-24T05:34:57.336Z,3.52
2018-07-24T05:37:25.459Z,4.03
2018-07-24T05:39:53.605Z,4.40
2018-07-24T05:42:21.783Z,4.10
2018-07-24T05:44:49.975Z,4.30
2018-07-24T05:47:18.131Z,4.37
2018-07-24T05:49:46.247Z,4.30
2018-07-24T05:52:14.425Z,4.07
2018-07-24T05:54:42.574Z,4.17
2018-07-24T05:57:10.739Z,3.70
2018-07-24T05:59:38.864Z,4.20
2018-07-24T06:02:07.008Z,3.70
2018-07-24T06:04:35.181Z,3.93
2018-07-24T06:07:03.317Z,4.03
2018-07-24T06:09:31.628Z,3.70
2018-07-24T06:11:59.775Z,3.53
2018-07-24T06:14:27.959Z,3.70
2018-07-24T06:16:56.038Z,4.40
2018-07-24T06:19:24.192Z,4.47
2018-07-24T06:21:52.363Z,4.83
2018-07-24T06:24:20.516Z,4.20
2018-07-24T06:26:48.893Z,4.80
2018-07-24T06:29:17.114Z,4.30
2018-07-24T06:31:45.223Z,4.30
2018-07-24T06:34:13.377Z,5.87
2018-07-24T06:36:41.529Z,4.73
2018-07-24T06:39:11.539Z,4.73
2018-07-24T06:41:40.108Z,4.70
2018-07-24T06:44:08.818Z,4.50
2018-07-24T06:46:36.953Z,4.00
2018-07-24T06:49:05.078Z,4.50
2018-07-24T06:51:33.271Z,4.73
2018-07-24T06:54:01.392Z,4.50
2018-07-24T06:56:30.177Z,4.43
2018-07-24T06:58:58.337Z,4.20
2018-07-24T07:01:26.529Z,3.97
2018-07-24T07:03:54.723Z,4.23
2018-07-24T07:06:22.953Z,3.90
2018-07-24T07:08:51.936Z,4.43
2018-07-24T07:11:20.092Z,5.13
2018-07-24T07:13:48.216Z,5.37
2018-07-24T07:16:16.391Z,4.20
2018-07-24T07:18:44.525Z,4.30
2018-07-24T07:21:12.669Z,4.97
2018-07-24T07:23:40.842Z,4.27
2018-07-24T07:26:09.078Z,4.50
2018-07-24T07:28:37.127Z,4.30
2018-07-24T07:31:05.292Z,4.57
2018-07-24T07:33:33.438Z,4.87
2018-07-24T07:36:01.605Z,4.57
2018-07-24T07:38:29.720Z,4.10
2018-07-24T07:40:57.831Z,4.50
2018-07-24T07:43:25.969Z,4.90
2018-07-24T07:45:54.104Z,4.97
2018-07-24T07:48:22.192Z,4.60
2018-07-24T07:50:50.376Z,4.97
2018-07-24T07:53:18.555Z,4.92
2018-07-24T07:55:46.679Z,4.87
2018-07-24T07:58:14.798Z,4.97
2018-07-24T08:00:42.976Z,4.70
2018-07-24T08:03:11.100Z,4.80
2018-07-24T08:05:39.234Z,5.00
2018-07-24T08:08:07.358Z,5.10
2018-07-24T08:10:35.472Z,4.57
2018-07-24T08:13:03.608Z,5.03
2018-07-24T08:15:31.717Z,4.03
2018-07-24T08:17:59.869Z,3.77
2018-07-24T08:20:28.058Z,4.63
2018-07-24T08:22:56.207Z,4.30
2018-07-24T08:25:24.364Z,4.70
2018-07-24T08:27:52.539Z,4.83
2018-07-24T08:30:20.594Z,4.28
2018-07-24T08:32:48.736Z,4.90
2018-07-24T08:35:16.901Z,5.10
2018-07-24T08:37:45.038Z,5.10
2018-07-24T08:40:13.207Z,5.00
2018-07-24T08:42:41.369Z,5.57
2018-07-24T08:45:09.487Z,5.37
2018-07-24T08:47:37.659Z,4.57
2018-07-24T08:50:05.824Z,5.13
2018-07-24T08:52:34.107Z,5.80
2018-07-24T08:55:02.390Z,5.27
2018-07-24T08:57:30.274Z,4.37
2018-07-24T08:59:58.364Z,5.13
2018-07-24T09:02:26.487Z,4.60
2018-07-24T09:04:54.608Z,4.63
2018-07-24T09:07:22.690Z,5.30
2018-07-24T09:09:50.812Z,4.62
2018-07-24T09:12:18.920Z,4.50
2018-07-24T09:14:47.184Z,4.80
2018-07-24T09:17:15.358Z,4.00
2018-07-24T09:19:43.486Z,4.70
2018-07-24T09:22:11.603Z,4.77
2018-07-24T09:24:39.745Z,5.20
2018-07-24T09:27:08.041Z,4.90
2018-07-24T09:29:36.089Z,4.23
2018-07-24T09:32:04.216Z,4.80
2018-07-24T09:34:32.335Z,4.53
2018-07-24T09:37:00.484Z,4.90
2018-07-24T09:39:28.644Z,4.93
2018-07-24T09:41:56.783Z,4.80
2018-07-24T09:44:24.877Z,5.40
2018-07-24T09:46:53.052Z,6.07
2018-07-24T09:49:21.220Z,5.30
2018-07-24T09:51:49.356Z,4.60
2018-07-24T09:54:17.499Z,5.30
2018-07-24T09:56:45.640Z,4.67
2018-07-24T09:59:13.832Z,5.27
2018-07-24T10:01:41.880Z,4.70
2018-07-24T10:04:10.073Z,4.90
2018-07-24T10:06:38.215Z,5.22
2018-07-24T10:09:08.789Z,4.63
2018-07-24T10:11:36.885Z,4.90
2018-07-24T10:14:05.052Z,4.97
2018-07-24T10:16:33.231Z,5.53
2018-07-24T10:19:01.460Z,4.63
2018-07-24T10:21:29.616Z,5.47
2018-07-24T10:23:57.769Z,5.40
2018-07-24T10:26:25.911Z,5.00
2018-07-24T10:28:54.024Z,6.40
2018-07-24T10:31:22.180Z,6.17
2018-07-24T10:33:50.336Z,5.73
2018-07-24T10:36:18.466Z,5.47
2018-07-24T10:38:46.568Z,4.57
2018-07-24T10:41:14.705Z,5.30
2018-07-24T10:43:42.862Z,5.37
2018-07-24T10:46:10.992Z,5.33
2018-07-24T10:48:39.104Z,4.87
2018-07-24T10:51:07.221Z,4.70
2018-07-24T10:53:35.374Z,4.43
2018-07-24T10:56:03.511Z,4.83
2018-07-24T10:58:31.865Z,4.65
2018-07-24T11:00:59.993Z,4.70
2018-07-24T11:03:28.130Z,5.95
2018-07-24T11:05:56.294Z,5.67
2018-07-24T11:08:24.448Z,5.07
2018-07-24T11:10:52.621Z,5.33
2018-07-24T11:13:20.743Z,5.46
2018-07-24T11:15:48.928Z,5.03
2018-07-24T11:18:17.093Z,4.97
2018-07-24T11:20:45.220Z,4.90
2018-07-24T11:23:13.852Z,4.67
2018-07-24T11:25:41.859Z,4.77
2018-07-24T11:28:09.986Z,4.70
2018-07-24T11:30:38.111Z,4.23
2018-07-24T11:33:06.304Z,4.77
2018-07-24T11:35:34.401Z,4.23
2018-07-24T11:38:02.532Z,4.17
2018-07-24T11:40:30.664Z,4.27
2018-07-24T11:42:58.804Z,4.00
2018-07-24T11:45:26.959Z,4.70
2018-07-24T11:47:55.064Z,4.70
2018-07-24T11:50:23.174Z,4.70
2018-07-24T11:52:51.312Z,4.40
2018-07-24T11:55:19.439Z,4.27
2018-07-24T11:57:47.695Z,4.40
2018-07-24T12:00:15.729Z,5.20
2018-07-24T12:02:43.914Z,4.57
2018-07-24T12:05:12.067Z,4.50
2018-07-24T12:07:40.234Z,4.10
2018-07-24T12:10:08.349Z,4.77
2018-07-24T12:12:36.521Z,4.33
2018-07-24T12:15:05.474Z,4.90
2018-07-24T12:17:33.597Z,4.13
2018-07-24T12:20:01.748Z,4.20
2018-07-24T12:22:29.875Z,5.50
2018-07-24T12:24:58.150Z,4.80
2018-07-24T12:27:26.286Z,4.77
2018-07-24T12:29:54.433Z,4.37
2018-07-24T12:32:22.616Z,4.30
2018-07-24T12:34:50.779Z,4.60
2018-07-24T12:37:18.932Z,4.10
2018-07-24T12:39:47.096Z,4.10
2018-07-24T12:42:15.298Z,3.80
2018-07-24T12:44:43.470Z,4.00
2018-07-24T12:47:11.645Z,4.20
2018-07-24T12:49:39.757Z,4.67
2018-07-24T12:52:07.916Z,4.17
2018-07-24T12:54:36.100Z,4.08
2018-07-24T12:57:04.240Z,4.00
2018-07-24T12:59:32.368Z,4.43
2018-07-24T13:02:00.500Z,4.70
2018-07-24T13:04:28.624Z,3.77
2018-07-24T13:06:56.773Z,4.25
2018-07-24T13:09:24.939Z,3.53
2018-07-24T13:11:53.142Z,4.07
2018-07-24T13:14:21.405Z,4.53
2018-07-24T13:16:49.577Z,3.70
2018-07-24T13:19:17.779Z,3.80
2018-07-24T13:21:45.938Z,3.50
2018-07-24T13:24:14.131Z,3.87
2018-07-24T13:26:42.244Z,3.10
2018-07-24T13:29:10.392Z,4.00
2018-07-24T13:31:38.537Z,3.60
2018-07-24T13:34:06.626Z,3.60
2018-07-24T13:36:34.805Z,3.70
2018-07-24T13:39:02.989Z,4.03
2018-07-24T13:41:31.153Z,3.90
2018-07-24T13:43:59.249Z,3.50
2018-07-24T13:46:27.394Z,3.70
2018-07-24T13:48:55.567Z,3.83
2018-07-24T13:51:23.717Z,3.50
2018-07-24T13:53:51.878Z,4.17
2018-07-24T13:56:20.028Z,3.80
2018-07-24T13:58:48.211Z,3.98
2018-07-24T14:01:16.295Z,4.10
2018-07-24T14:03:44.614Z,3.27
2018-07-24T14:06:12.799Z,3.57
2018-07-24T14:08:40.923Z,3.77
2018-07-24T14:11:09.033Z,4.13
2018-07-24T14:13:37.176Z,3.17
2018-07-24T14:16:05.279Z,3.50
2018-07-24T14:18:33.380Z,3.93
2018-07-24T14:21:01.525Z,3.80
2018-07-24T14:23:29.656Z,3.10
2018-07-24T14:25:57.761Z,4.10
2018-07-24T14:28:25.847Z,3.30
2018-07-24T14:30:53.976Z,3.27
2018-07-24T14:50:06.713Z,3.93
2018-07-24T14:52:34.900Z,3.20
2018-07-24T14:55:03.054Z,3.50
2018-07-24T14:57:31.183Z,3.63
2018-07-24T14:59:59.612Z,3.33
2018-07-24T15:02:27.723Z,3.23
2018-07-24T15:04:55.839Z,3.30
2018-07-24T15:07:23.920Z,3.40
2018-07-24T15:09:52.040Z,3.10
2018-07-24T15:12:20.163Z,3.07
2018-07-24T15:14:48.295Z,3.00
2018-07-24T15:17:16.424Z,3.50
2018-07-24T15:19:44.572Z,3.20
2018-07-24T15:22:13.629Z,3.70
2018-07-24T15:24:41.756Z,2.95
2018-07-24T15:27:09.832Z,3.22
2018-07-24T15:29:37.963Z,3.60
2018-07-24T15:32:06.114Z,3.60
2018-07-24T15:34:34.367Z,3.20
2018-07-24T15:37:02.517Z,4.97
2018-07-24T15:39:30.557Z,2.63
2018-07-24T15:41:58.756Z,3.22
2018-07-24T15:44:28.380Z,4.27
2018-07-24T15:46:56.652Z,3.60
2018-07-24T15:49:24.695Z,3.50
2018-07-24T15:51:52.840Z,3.90
2018-07-24T15:54:20.945Z,2.93
2018-07-24T15:56:49.026Z,3.27
2018-07-24T15:59:17.157Z,3.30
2018-07-24T16:01:45.276Z,3.50
2018-07-24T16:04:13.402Z,3.60
2018-07-24T16:06:41.533Z,3.50
2018-07-24T16:09:11.864Z,4.07
2018-07-24T16:11:40.021Z,3.40
2018-07-24T16:14:08.199Z,3.40
2018-07-24T16:16:36.346Z,3.60
2018-07-24T16:19:04.568Z,3.60
2018-07-24T16:21:32.790Z,3.70
2018-07-24T16:24:00.904Z,3.30
2018-07-24T16:26:29.018Z,3.40
2018-07-24T16:28:57.139Z,3.50
2018-07-24T16:31:25.272Z,3.53
2018-07-24T16:33:53.384Z,3.67
2018-07-24T16:36:21.566Z,3.23
2018-07-24T16:38:49.691Z,3.67
2018-07-24T16:41:17.792Z,3.03
2018-07-24T16:43:45.927Z,3.60
2018-07-24T16:46:14.069Z,3.87
2018-07-24T16:48:42.328Z,2.97
2018-07-24T16:51:10.573Z,4.12
2018-07-24T16:53:38.652Z,3.63
2018-07-24T16:56:07.083Z,3.80
2018-07-24T16:58:35.212Z,3.60
2018-07-24T17:01:03.361Z,3.40
2018-07-24T17:03:31.487Z,4.05
2018-07-24T17:05:59.756Z,3.87
2018-07-24T17:08:27.969Z,3.77
2018-07-24T17:10:56.124Z,3.47
2018-07-24T17:13:24.328Z,4.00
2018-07-24T17:15:52.489Z,4.33
2018-07-24T17:18:20.671Z,3.67
2018-07-24T17:20:48.872Z,3.67
2018-07-24T17:23:17.020Z,3.70
2018-07-24T17:25:45.137Z,3.80
2018-07-24T17:28:13.272Z,3.47
2018-07-24T17:30:41.368Z,3.30
2018-07-24T17:33:10.120Z,4.40
2018-07-24T17:35:38.215Z,3.93
2018-07-24T17:38:06.379Z,3.67
2018-07-24T17:40:34.603Z,4.10
2018-07-24T17:43:02.643Z,3.67
2018-07-24T17:45:30.749Z,4.00
2018-07-24T17:47:58.891Z,4.10
2018-07-24T17:50:27.020Z,3.67
2018-07-24T17:52:55.106Z,3.30
2018-07-24T17:55:23.256Z,3.60
2018-07-24T17:57:51.385Z,3.97
2018-07-24T18:00:19.528Z,3.30
2018-07-24T18:02:47.680Z,4.30
2018-07-24T18:05:15.773Z,3.43
2018-07-24T18:07:43.860Z,3.80
2018-07-24T18:10:11.996Z,3.73
2018-07-24T18:12:40.123Z,3.50
2018-07-24T18:15:08.249Z,4.30
2018-07-24T18:17:36.402Z,4.00
2018-07-24T18:20:05.034Z,3.83
2018-07-24T18:22:33.168Z,3.43
2018-07-24T18:25:01.386Z,3.50
2018-07-24T18:27:29.534Z,3.80
2018-07-24T18:29:57.620Z,3.23
2018-07-24T18:32:26.067Z,3.13
2018-07-24T18:34:54.167Z,3.10
2018-07-24T18:37:22.266Z,3.30
2018-07-24T18:39:50.356Z,3.73
2018-07-24T18:42:18.488Z,2.90
2018-07-24T18:44:46.601Z,3.90
2018-07-24T18:47:14.671Z,3.30
2018-07-24T18:49:42.795Z,3.60
2018-07-24T18:52:10.942Z,3.90
2018-07-24T18:54:39.073Z,3.37
2018-07-24T18:57:07.218Z,3.80
2018-07-24T18:59:35.370Z,3.73
2018-07-24T19:02:03.515Z,3.27
2018-07-24T19:04:31.623Z,3.77
2018-07-24T19:06:59.731Z,4.20
2018-07-24T19:09:27.860Z,3.50
2018-07-24T19:11:56.086Z,3.70
2018-07-24T19:14:24.254Z,3.63
2018-07-24T19:16:52.367Z,3.37
2018-07-24T19:19:20.480Z,3.60
2018-07-24T19:21:48.613Z,4.40
2018-07-24T19:24:16.732Z,4.10
2018-07-24T19:26:44.884Z,3.67
2018-07-24T19:29:12.983Z,3.90
2018-07-24T19:31:41.082Z,3.53
2018-07-24T19:34:09.140Z,4.10
2018-07-24T19:36:37.268Z,3.50
2018-07-24T19:39:08.716Z,3.77
2018-07-24T19:41:36.873Z,3.70
2018-07-24T19:44:06.181Z,4.17
2018-07-24T19:46:34.332Z,3.70
2018-07-24T19:49:02.473Z,3.80
2018-07-24T19:51:30.625Z,3.33
2018-07-24T19:53:58.756Z,4.10
2018-07-24T19:56:26.866Z,3.90
2018-07-24T19:58:54.985Z,3.90
2018-07-24T20:01:23.074Z,3.50
2018-07-24T20:03:51.563Z,3.57
2018-07-24T20:06:19.751Z,4.47
2018-07-24T20:08:47.927Z,3.40
2018-07-24T20:11:16.187Z,4.17
2018-07-24T20:13:44.351Z,3.63
2018-07-24T20:16:12.482Z,3.70
2018-07-24T20:18:40.628Z,3.90
2018-07-24T20:21:08.889Z,3.93
2018-07-24T20:23:37.066Z,4.40
2018-07-24T20:26:05.259Z,3.93
2018-07-24T20:28:33.471Z,3.93
2018-07-24T20:31:01.717Z,4.03
2018-07-24T20:33:29.826Z,4.78
2018-07-24T20:35:57.921Z,3.83
2018-07-24T20:38:26.012Z,3.60
2018-07-24T20:40:54.094Z,4.00
2018-07-24T20:43:22.235Z,4.53
2018-07-24T20:45:50.354Z,4.10
2018-07-24T20:48:18.453Z,4.13
2018-07-24T20:50:46.637Z,4.43
2018-07-24T20:53:14.793Z,4.53
2018-07-24T20:55:42.968Z,4.40
2018-07-24T20:58:11.040Z,3.93
2018-07-24T21:00:39.164Z,4.00
2018-07-24T21:03:07.909Z,3.75
2018-07-24T21:05:36.017Z,4.20
2018-07-24T21:08:04.114Z,3.87
2018-07-24T21:10:32.271Z,4.27
2018-07-24T21:13:00.498Z,4.10
2018-07-24T21:15:28.588Z,3.67
2018-07-24T21:17:56.709Z,3.97
2018-07-24T21:20:24.801Z,4.83
2018-07-24T21:22:52.959Z,3.87
2018-07-24T21:25:21.052Z,4.20
2018-07-24T21:27:49.167Z,4.40
2018-07-24T21:30:17.298Z,4.07
2018-07-24T21:32:45.462Z,4.33
2018-07-24T21:35:13.614Z,4.10
2018-07-24T21:37:41.752Z,4.00
2018-07-24T21:40:09.880Z,4.20
2018-07-24T21:42:38.112Z,4.40
2018-07-24T21:45:06.112Z,3.73
2018-07-24T21:47:34.232Z,4.30
2018-07-24T21:50:02.367Z,4.50
2018-07-24T21:52:30.482Z,4.43
2018-07-24T21:54:58.590Z,4.50
2018-07-24T21:57:26.705Z,4.60
2018-07-24T21:59:54.806Z,4.03
2018-07-24T22:02:22.911Z,4.40
2018-07-24T22:04:51.024Z,4.13
2018-07-24T22:07:19.120Z,4.63
2018-07-24T22:09:47.228Z,5.43
2018-07-24T22:12:15.420Z,4.23
2018-07-24T22:14:43.498Z,4.60
2018-07-24T22:17:11.587Z,4.73
2018-07-24T22:19:39.764Z,4.80
2018-07-24T22:22:07.831Z,4.63
2018-07-24T22:24:35.943Z,4.83
2018-07-24T22:27:04.070Z,4.50
2018-07-24T22:29:32.219Z,4.50
2018-07-24T22:32:00.311Z,4.40
2018-07-24T22:34:28.504Z,4.17
2018-07-24T22:36:56.639Z,3.93
2018-07-24T22:39:24.779Z,4.17
2018-07-24T22:41:52.931Z,4.27
2018-07-24T22:44:21.162Z,4.00
2018-07-24T22:46:49.270Z,3.70
2018-07-24T22:49:17.380Z,4.10
2018-07-24T22:51:45.497Z,3.90
2018-07-24T22:54:13.620Z,3.83
2018-07-24T22:56:41.758Z,4.53
2018-07-24T22:59:09.914Z,4.30
2018-07-24T23:01:38.016Z,4.17
2018-07-24T23:04:06.261Z,3.83
2018-07-24T23:06:34.436Z,4.57
2018-07-24T23:09:02.612Z,4.20
2018-07-24T23:11:30.752Z,4.60
2018-07-24T23:13:58.903Z,4.40
2018-07-24T23:16:26.981Z,4.10
2018-07-24T23:18:55.106Z,3.83
2018-07-24T23:21:23.221Z,4.20
2018-07-24T23:23:51.334Z,3.80
2018-07-24T23:26:19.440Z,4.40
2018-07-24T23:28:47.496Z,5.00
2018-07-24T23:31:15.676Z,4.73
2018-07-24T23:33:43.934Z,3.97
2018-07-24T23:36:12.081Z,4.03
2018-07-24T23:38:40.233Z,3.92
2018-07-24T23:41:08.449Z,4.15
2018-07-24T23:43:36.639Z,3.70
2018-07-24T23:46:04.810Z,4.23
2018-07-24T23:48:32.964Z,4.80
2018-07-24T23:51:01.158Z,3.80
2018-07-24T23:53:29.323Z,3.95
2018-07-24T23:55:57.508Z,5.00
2018-07-24T23:58:25.692Z,4.43
